Time;durP1;ratioP1;P1;durP2;ratioP2;P2;SDS_P1;SDS_P2;PMS_P1;PMS_P2;Temp;Humidity;BMP_temperature;BMP_pressure;BME280_temperature;BME280_humidity;BME280_pressure;Samples;Min_cycle;Max_cycle;Signal;HPM_P1;HPM_P2
2022/07/11 00:03:45;;;;;;;2.75;1.10;;;;;;;;;;10428972;28;20214;-75
2022/07/11 00:08:46;;;;;;;2.95;1.20;;;;;;;;;;10435522;28;20231;-76
2022/07/11 00:13:47;;;;;;;2.53;0.93;;;;;;;;;;10438095;28;20191;-75
2022/07/11 00:18:49;;;;;;;4.53;0.90;;;;;;;;;;10443692;28;20203;-76
2022/07/11 00:23:50;;;;;;;3.20;0.80;;;;;;;;;;10443480;28;20198;-75
2022/07/11 00:28:51;;;;;;;4.60;1.00;;;;;;;;;;10442857;28;20297;-75
2022/07/11 00:33:52;;;;;;;1.50;0.80;;;;;;;;;;10441122;28;20949;-74
2022/07/11 00:38:53;;;;;;;1.52;0.93;;;;;;;;;;10433640;28;20191;-73
2022/07/11 00:43:58;;;;;;;4.43;1.17;;;;;;;;;;10438846;28;20191;-76
2022/07/11 00:49:00;;;;;;;2.50;0.77;;;;;;;;;;10435284;28;20225;-75
2022/07/11 00:54:01;;;;;;;4.22;0.73;;;;;;;;;;10438330;28;20556;-75
2022/07/11 00:59:02;;;;;;;3.08;1.02;;;;;;;;;;10439482;28;20210;-75
2022/07/11 01:04:04;;;;;;;2.83;0.82;;;;;;;;;;10440965;28;20226;-73
2022/07/11 01:09:05;;;;;;;0.80;0.80;;;;;;;;;;10429838;28;20243;-75
2022/07/11 01:14:06;;;;;;;2.05;0.77;;;;;;;;;;10426292;28;20277;-75
2022/07/11 01:19:07;;;;;;;2.45;0.75;;;;;;;;;;10433781;28;20315;-75
2022/07/11 01:24:09;;;;;;;4.03;0.73;;;;;;;;;;10429321;28;20533;-74
2022/07/11 01:29:14;;;;;;;2.05;0.77;;;;;;;;;;10424745;28;20309;-75
2022/07/11 01:34:15;;;;;;;1.17;0.63;;;;;;;;;;10407814;28;20216;-76
2022/07/11 01:39:16;;;;;;;1.20;0.70;;;;;;;;;;10414070;28;20187;-76
2022/07/11 01:44:17;;;;;;;2.90;0.80;;;;;;;;;;10425016;28;20193;-75
2022/07/11 01:49:18;;;;;;;3.65;0.68;;;;;;;;;;10426339;28;20788;-74
2022/07/11 01:54:19;;;;;;;0.63;0.60;;;;;;;;;;10430386;28;20187;-76
2022/07/11 01:59:20;;;;;;;1.33;0.57;;;;;;;;;;10431860;28;20195;-75
2022/07/11 02:04:21;;;;;;;1.00;0.60;;;;;;;;;;10420334;28;20242;-75
2022/07/11 02:09:22;;;;;;;2.63;1.00;;;;;;;;;;10425376;28;20222;-75
2022/07/11 02:14:23;;;;;;;1.48;0.80;;;;;;;;;;10427787;28;20201;-75
2022/07/11 02:19:24;;;;;;;1.42;0.73;;;;;;;;;;10430498;28;20211;-74
2022/07/11 02:24:25;;;;;;;1.48;0.68;;;;;;;;;;10426633;28;20253;-74
2022/07/11 02:29:26;;;;;;;0.90;0.80;;;;;;;;;;10430181;28;20261;-75
2022/07/11 02:34:27;;;;;;;2.30;0.77;;;;;;;;;;10427427;28;20294;-74
2022/07/11 02:39:29;;;;;;;1.52;0.95;;;;;;;;;;10415912;28;20218;-75
2022/07/11 02:44:30;;;;;;;0.98;0.80;;;;;;;;;;10425083;28;20195;-75
2022/07/11 02:49:32;;;;;;;1.15;0.77;;;;;;;;;;10424388;28;20258;-75
2022/07/11 02:54:33;;;;;;;3.72;0.95;;;;;;;;;;10424245;28;20338;-74
2022/07/11 02:59:34;;;;;;;1.95;0.80;;;;;;;;;;10430901;28;20780;-74
2022/07/11 03:04:35;;;;;;;0.55;0.50;;;;;;;;;;10429018;28;20242;-75
2022/07/11 03:09:37;;;;;;;1.08;0.63;;;;;;;;;;10426835;28;20218;-75
2022/07/11 03:14:38;;;;;;;3.47;0.85;;;;;;;;;;10419615;28;20202;-75
2022/07/11 03:19:39;;;;;;;1.00;1.00;;;;;;;;;;10421326;28;20210;-76
2022/07/11 03:24:41;;;;;;;1.10;0.90;;;;;;;;;;10422754;28;20193;-75
2022/07/11 03:29:42;;;;;;;1.58;1.02;;;;;;;;;;10432141;28;20206;-75
2022/07/11 03:35:40;;;;;;;2.50;1.65;;;;;;;;;;10426916;28;20304;-75
2022/07/11 03:40:04;;;;;;;3.45;1.52;;;;;;;;;;10428238;28;20199;-74
2022/07/11 03:45:06;;;;;;;3.60;1.20;;;;;;;;;;10420515;28;20278;-73
2022/07/11 03:50:07;;;;;;;5.07;1.50;;;;;;;;;;10416815;28;20214;-74
2022/07/11 03:55:09;;;;;;;3.72;1.17;;;;;;;;;;10418804;28;20260;-76
2022/07/11 04:00:12;;;;;;;3.63;1.30;;;;;;;;;;10400691;28;20882;-73
2022/07/11 04:05:14;;;;;;;2.28;1.33;;;;;;;;;;10416669;28;20202;-73
2022/07/11 04:10:17;;;;;;;2.63;1.65;;;;;;;;;;10417516;28;21142;-73
2022/07/11 04:15:18;;;;;;;2.63;2.00;;;;;;;;;;10397250;28;20211;-73
2022/07/11 04:20:19;;;;;;;1.75;1.65;;;;;;;;;;10416609;28;20219;-74
2022/07/11 04:25:20;;;;;;;1.77;1.67;;;;;;;;;;10421054;28;20310;-74
2022/07/11 04:30:21;;;;;;;2.42;2.22;;;;;;;;;;10419436;28;20222;-74
2022/07/11 04:35:23;;;;;;;1.50;1.50;;;;;;;;;;10421469;28;20291;-74
2022/07/11 04:40:24;;;;;;;2.58;1.80;;;;;;;;;;10427774;28;20200;-74
2022/07/11 04:45:25;;;;;;;2.38;1.90;;;;;;;;;;10426305;28;20254;-73
2022/07/11 04:50:26;;;;;;;3.20;2.38;;;;;;;;;;10420665;28;20206;-74
2022/07/11 04:55:41;;;;;;;;;;;;;;;;;;;;;
2022/07/11 05:00:42;;;;;;;2.33;1.67;;;;;;;;;;10421772;28;20694;-72
2022/07/11 05:05:43;;;;;;;2.25;2.03;;;;;;;;;;10422957;28;20647;-72
2022/07/11 05:10:44;;;;;;;4.07;1.90;;;;;;;;;;10425542;28;20239;-73
2022/07/11 05:15:45;;;;;;;5.10;2.60;;;;;;;;;;10410953;28;20318;-74
2022/07/11 05:20:48;;;;;;;5.95;2.88;;;;;;;;;;10430898;28;21468;-74
2022/07/11 05:25:49;;;;;;;7.82;2.47;;;;;;;;;;10425552;28;20334;-72
2022/07/11 05:30:50;;;;;;;3.17;2.92;;;;;;;;;;10413053;28;20229;-73
2022/07/11 05:35:51;;;;;;;5.35;2.50;;;;;;;;;;10425348;28;20198;-74
2022/07/11 05:40:52;;;;;;;3.35;2.33;;;;;;;;;;10421698;28;21034;-72
2022/07/11 05:45:53;;;;;;;2.50;1.90;;;;;;;;;;10402975;28;20206;-74
2022/07/11 05:50:54;;;;;;;2.83;1.30;;;;;;;;;;10421692;28;20642;-73
2022/07/11 06:01:25;;;;;;;2.00;0.95;;;;;;;;;;10357228;28;20267;-72
2022/07/11 06:06:26;;;;;;;2.53;0.75;;;;;;;;;;10378103;28;20215;-73
2022/07/11 06:11:28;;;;;;;3.58;1.15;;;;;;;;;;10380238;28;20868;-75
2022/07/11 06:16:29;;;;;;;3.00;0.95;;;;;;;;;;10383998;28;20192;-75
2022/07/11 06:21:30;;;;;;;1.83;0.63;;;;;;;;;;10377842;28;20433;-73
2022/07/11 06:26:31;;;;;;;1.25;0.60;;;;;;;;;;10360008;28;20255;-73
2022/07/11 06:31:32;;;;;;;2.35;0.77;;;;;;;;;;10375243;28;20222;-74
2022/07/11 06:36:34;;;;;;;1.17;0.45;;;;;;;;;;10377829;28;20192;-73
2022/07/11 06:41:35;;;;;;;2.75;0.40;;;;;;;;;;10377682;28;20207;-73
2022/07/11 06:46:36;;;;;;;1.65;0.55;;;;;;;;;;10379405;28;20194;-73
2022/07/11 06:51:38;;;;;;;2.10;0.40;;;;;;;;;;10379012;28;20266;-74
2022/07/11 06:56:39;;;;;;;0.95;0.38;;;;;;;;;;10380290;28;20258;-73
2022/07/11 07:01:40;;;;;;;2.30;0.55;;;;;;;;;;10361948;28;20725;-73
2022/07/11 07:06:41;;;;;;;0.30;0.30;;;;;;;;;;10377641;28;20188;-73
2022/07/11 07:11:42;;;;;;;0.40;0.40;;;;;;;;;;10374601;28;20211;-75
2022/07/11 07:16:43;;;;;;;0.93;0.35;;;;;;;;;;10376990;28;20187;-72
2022/07/11 07:21:44;;;;;;;0.40;0.40;;;;;;;;;;10374088;28;20211;-74
2022/07/11 07:26:45;;;;;;;0.65;0.47;;;;;;;;;;10378586;28;20223;-75
2022/07/11 07:31:47;;;;;;;0.57;0.47;;;;;;;;;;10382259;28;20227;-75
2022/07/11 07:36:48;;;;;;;2.40;0.57;;;;;;;;;;10377788;28;20196;-74
2022/07/11 07:41:49;;;;;;;1.05;0.50;;;;;;;;;;10367202;28;20234;-75
2022/07/11 07:46:50;;;;;;;1.30;0.43;;;;;;;;;;10376808;28;20191;-74
2022/07/11 07:51:51;;;;;;;0.57;0.57;;;;;;;;;;10361176;28;20311;-74
2022/07/11 07:56:52;;;;;;;2.72;0.63;;;;;;;;;;10379545;28;20192;-73
2022/07/11 08:01:54;;;;;;;0.40;0.40;;;;;;;;;;10380474;28;20262;-73
2022/07/11 08:06:56;;;;;;;0.70;0.70;;;;;;;;;;10368711;28;20913;-73
2022/07/11 08:11:57;;;;;;;1.10;0.70;;;;;;;;;;10371377;28;20849;-73
2022/07/11 08:16:59;;;;;;;0.50;0.50;;;;;;;;;;10382290;28;20192;-73
2022/07/11 08:22:00;;;;;;;1.65;0.60;;;;;;;;;;10379296;28;20666;-75
2022/07/11 08:27:01;;;;;;;0.77;0.55;;;;;;;;;;10383062;28;20199;-73
2022/07/11 08:32:02;;;;;;;1.63;0.70;;;;;;;;;;10369530;28;20232;-74
2022/07/11 08:37:03;;;;;;;1.48;0.60;;;;;;;;;;10366021;28;20272;-74
2022/07/11 08:42:04;;;;;;;0.95;0.60;;;;;;;;;;10387068;28;20191;-75
2022/07/11 08:47:06;;;;;;;1.10;0.40;;;;;;;;;;10381528;28;20195;-73
2022/07/11 08:52:08;;;;;;;0.73;0.55;;;;;;;;;;10384078;28;20261;-72
2022/07/11 08:57:09;;;;;;;0.55;0.50;;;;;;;;;;10380021;28;20275;-70
2022/07/11 09:02:11;;;;;;;2.35;0.40;;;;;;;;;;10378537;28;20223;-73
2022/07/11 09:07:13;;;;;;;1.27;0.50;;;;;;;;;;10381770;28;20736;-73
2022/07/11 09:12:17;;;;;;;0.90;0.50;;;;;;;;;;10378894;28;20224;-71
2022/07/11 09:17:26;;;;;;;0.43;0.43;;;;;;;;;;10380806;28;20223;-70
2022/07/11 09:27:51;;;;;;;0.45;0.45;;;;;;;;;;10382246;28;20199;-73
2022/07/11 09:32:55;;;;;;;0.40;0.40;;;;;;;;;;10384335;28;20767;-75
2022/07/11 09:37:56;;;;;;;1.58;0.50;;;;;;;;;;10384396;28;20206;-75
2022/07/11 09:42:58;;;;;;;0.68;0.32;;;;;;;;;;10386179;28;20222;-76
2022/07/11 09:48:00;;;;;;;1.00;0.30;;;;;;;;;;10363402;28;20704;-72
2022/07/11 09:53:08;;;;;;;0.40;0.40;;;;;;;;;;10380409;28;20220;-74
2022/07/11 09:58:10;;;;;;;0.43;0.28;;;;;;;;;;10375528;28;20226;-73
2022/07/11 10:03:12;;;;;;;1.48;0.30;;;;;;;;;;10361831;28;20872;-75
2022/07/11 10:08:13;;;;;;;0.20;0.20;;;;;;;;;;10356491;28;20223;-73
2022/07/11 10:13:15;;;;;;;1.48;0.30;;;;;;;;;;10377785;28;20211;-73
2022/07/11 10:18:25;;;;;;;0.32;0.32;;;;;;;;;;10377560;28;20295;-75
2022/07/11 10:23:26;;;;;;;3.03;0.40;;;;;;;;;;10359039;28;20191;-75
2022/07/11 10:28:39;;;;;;;1.85;0.45;;;;;;;;;;10377086;28;20233;-74
2022/07/11 10:33:59;;;;;;;0.30;0.30;;;;;;;;;;10379121;28;20242;-74
2022/07/11 10:39:14;;;;;;;1.48;0.40;;;;;;;;;;10375751;28;20191;-73
2022/07/11 10:44:15;;;;;;;0.82;0.30;;;;;;;;;;10357953;28;20291;-70
2022/07/11 10:49:20;;;;;;;0.75;0.25;;;;;;;;;;10374807;28;20709;-73
2022/07/11 10:54:33;;;;;;;0.63;0.30;;;;;;;;;;10377840;28;20663;-69
2022/07/11 10:59:34;;;;;;;1.20;0.30;;;;;;;;;;10379238;28;20697;-70
2022/07/11 11:04:42;;;;;;;1.27;0.30;;;;;;;;;;10379534;28;20219;-73
2022/07/11 11:09:43;;;;;;;1.58;0.30;;;;;;;;;;10376140;28;20745;-69
2022/07/11 11:14:44;;;;;;;0.30;0.30;;;;;;;;;;10355721;28;21185;-68
2022/07/11 11:19:48;;;;;;;1.75;0.28;;;;;;;;;;10355227;28;20207;-70
2022/07/11 11:24:52;;;;;;;0.40;0.35;;;;;;;;;;10381464;28;20191;-70
2022/07/11 11:29:53;;;;;;;0.22;0.22;;;;;;;;;;10361851;28;20564;-69
2022/07/11 11:34:55;;;;;;;0.73;0.32;;;;;;;;;;10384505;28;20212;-71
2022/07/11 11:40:02;;;;;;;0.30;0.20;;;;;;;;;;10366407;28;20224;-71
2022/07/11 11:45:04;;;;;;;0.95;0.20;;;;;;;;;;10383688;28;20231;-71
2022/07/11 11:50:09;;;;;;;0.35;0.30;;;;;;;;;;10385941;28;20750;-69
2022/07/11 11:55:11;;;;;;;0.63;0.20;;;;;;;;;;10388478;28;20196;-71
2022/07/11 12:00:26;;;;;;;0.20;0.20;;;;;;;;;;10365501;28;20284;-70
2022/07/11 12:05:29;;;;;;;0.20;0.20;;;;;;;;;;10388312;28;20203;-66
2022/07/11 12:10:31;;;;;;;2.05;0.20;;;;;;;;;;10387956;28;20238;-68
2022/07/11 12:16:39;;;;;;;0.20;0.20;;;;;;;;;;10348909;28;20255;-69
2022/07/11 12:21:08;;;;;;;1.17;0.20;;;;;;;;;;10380466;28;20238;-68
2022/07/11 12:26:12;;;;;;;1.35;0.20;;;;;;;;;;10382871;28;20179;-68
2022/07/11 12:31:13;;;;;;;0.20;0.20;;;;;;;;;;10344665;28;20223;-70
2022/07/11 12:36:14;;;;;;;0.30;0.30;;;;;;;;;;10382701;28;20203;-70
2022/07/11 12:41:15;;;;;;;0.20;0.20;;;;;;;;;;10388437;28;20195;-70
2022/07/11 12:46:18;;;;;;;0.60;0.20;;;;;;;;;;10383297;28;20215;-70
2022/07/11 12:51:29;;;;;;;0.20;0.20;;;;;;;;;;10379411;28;20939;-70
2022/07/11 12:56:31;;;;;;;1.63;0.30;;;;;;;;;;10382555;28;20207;-70
2022/07/11 13:01:32;;;;;;;0.25;0.25;;;;;;;;;;10381885;28;20223;-71
2022/07/11 13:12:01;;;;;;;0.20;0.20;;;;;;;;;;10376797;28;20215;-71
2022/07/11 13:17:02;;;;;;;0.20;0.20;;;;;;;;;;10375841;28;20241;-73
2022/07/11 13:22:03;;;;;;;1.75;0.20;;;;;;;;;;10353249;28;20195;-71
2022/07/11 13:27:05;;;;;;;0.10;0.10;;;;;;;;;;10375770;28;20231;-73
2022/07/11 13:32:06;;;;;;;0.57;0.20;;;;;;;;;;10379505;28;20310;-74
2022/07/11 13:37:07;;;;;;;0.40;0.20;;;;;;;;;;10383644;28;20197;-75
2022/07/11 13:42:08;;;;;;;0.10;0.10;;;;;;;;;;10378149;28;20191;-72
2022/07/11 13:47:09;;;;;;;0.50;0.10;;;;;;;;;;10378025;28;20199;-73
2022/07/11 13:52:11;;;;;;;0.28;0.20;;;;;;;;;;10371365;28;20212;-73
2022/07/11 13:57:12;;;;;;;1.30;0.20;;;;;;;;;;10377053;28;20188;-71
2022/07/11 14:02:13;;;;;;;0.63;0.15;;;;;;;;;;10376172;28;20307;-73
2022/07/11 14:07:14;;;;;;;0.20;0.20;;;;;;;;;;10373654;28;20216;-73
2022/07/11 14:12:15;;;;;;;0.30;0.30;;;;;;;;;;10376144;28;20220;-73
2022/07/11 14:17:16;;;;;;;0.22;0.20;;;;;;;;;;10374860;28;20746;-74
2022/07/11 14:22:17;;;;;;;0.25;0.20;;;;;;;;;;10373215;28;20187;-74
2022/07/11 14:27:19;;;;;;;1.02;0.10;;;;;;;;;;10362944;28;20192;-73
2022/07/11 14:32:20;;;;;;;1.20;0.20;;;;;;;;;;10379136;28;20314;-72
2022/07/11 14:37:21;;;;;;;0.60;0.40;;;;;;;;;;10355168;28;20192;-73
2022/07/11 14:42:22;;;;;;;0.70;0.20;;;;;;;;;;10373494;28;20188;-73
2022/07/11 14:47:24;;;;;;;0.98;0.22;;;;;;;;;;10371568;28;20587;-74
2022/07/11 14:52:25;;;;;;;2.17;0.50;;;;;;;;;;10377879;28;20596;-71
2022/07/11 14:57:26;;;;;;;0.10;0.10;;;;;;;;;;10377792;28;20270;-73
2022/07/11 15:13:06;;;;;;;1.27;0.20;;;;;;;;;;10373384;28;20219;-74
2022/07/11 15:18:08;;;;;;;1.13;0.28;;;;;;;;;;10373593;28;20211;-72
2022/07/11 15:23:09;;;;;;;0.40;0.40;;;;;;;;;;10376953;28;20200;-72
2022/07/11 15:28:10;;;;;;;3.33;2.10;;;;;;;;;;10381703;28;20195;-73
2022/07/11 15:33:11;;;;;;;0.43;0.20;;;;;;;;;;10377993;28;20238;-72
2022/07/11 15:38:12;;;;;;;1.75;1.15;;;;;;;;;;10378085;28;20188;-73
2022/07/11 15:43:13;;;;;;;2.25;0.35;;;;;;;;;;10376840;28;20619;-74
2022/07/11 15:48:14;;;;;;;2.53;1.55;;;;;;;;;;10374211;28;20214;-73
2022/07/11 15:53:15;;;;;;;5.18;0.50;;;;;;;;;;10370104;28;20254;-73
2022/07/11 15:58:17;;;;;;;0.40;0.40;;;;;;;;;;10367178;28;20199;-73
2022/07/11 16:03:18;;;;;;;0.43;0.30;;;;;;;;;;10376009;28;20218;-72
2022/07/11 16:08:19;;;;;;;4.75;0.25;;;;;;;;;;10373628;28;20307;-74
2022/07/11 16:13:20;;;;;;;0.20;0.20;;;;;;;;;;10374587;28;20212;-73
2022/07/11 16:18:21;;;;;;;3.95;2.97;;;;;;;;;;10366104;28;20207;-74
2022/07/11 16:23:22;;;;;;;4.57;4.15;;;;;;;;;;10384667;28;20237;-72
2022/07/11 16:28:23;;;;;;;1.20;0.50;;;;;;;;;;10379045;28;20202;-70
2022/07/11 16:33:24;;;;;;;0.20;0.20;;;;;;;;;;10379564;28;20230;-73
2022/07/11 16:38:25;;;;;;;0.10;0.10;;;;;;;;;;10386272;28;20206;-74
2022/07/11 16:43:28;;;;;;;0.60;0.17;;;;;;;;;;10379614;28;20183;-72
2022/07/11 16:48:32;;;;;;;1.10;1.10;;;;;;;;;;10376943;28;20204;-70
2022/07/11 16:53:34;;;;;;;0.40;0.30;;;;;;;;;;10374334;28;20739;-74
2022/07/11 16:58:35;;;;;;;0.20;0.20;;;;;;;;;;10375405;28;20188;-72
2022/07/11 17:03:36;;;;;;;1.27;0.20;;;;;;;;;;10373283;28;20212;-73
2022/07/11 17:08:43;;;;;;;0.30;0.20;;;;;;;;;;10376893;28;20243;-73
2022/07/11 17:13:44;;;;;;;0.17;0.17;;;;;;;;;;10374840;28;20219;-74
2022/07/11 17:18:45;;;;;;;0.20;0.20;;;;;;;;;;10373180;28;20664;-73
2022/07/11 17:23:46;;;;;;;0.90;0.30;;;;;;;;;;10378273;28;20187;-72
2022/07/11 17:28:49;;;;;;;0.35;0.20;;;;;;;;;;10378755;28;20195;-72
2022/07/11 17:33:50;;;;;;;0.35;0.35;;;;;;;;;;10361932;28;20235;-69
2022/07/11 17:38:52;;;;;;;4.22;0.20;;;;;;;;;;10380920;28;20652;-68
2022/07/11 17:43:53;;;;;;;1.00;0.20;;;;;;;;;;10374676;28;20245;-68
2022/07/11 17:48:54;;;;;;;4.80;0.30;;;;;;;;;;10375550;28;20239;-70
2022/07/11 17:53:56;;;;;;;1.25;0.10;;;;;;;;;;10378198;28;20617;-71
2022/07/11 17:58:57;;;;;;;0.47;0.15;;;;;;;;;;10377958;28;20188;-69
2022/07/11 18:03:58;;;;;;;0.85;0.10;;;;;;;;;;10381180;28;20284;-70
2022/07/11 18:08:59;;;;;;;0.20;0.20;;;;;;;;;;10377510;28;20242;-70
2022/07/11 18:14:00;;;;;;;1.27;1.08;;;;;;;;;;10362379;28;20711;-70
2022/07/11 18:19:02;;;;;;;0.35;0.20;;;;;;;;;;10359239;28;20215;-69
2022/07/11 18:24:03;;;;;;;1.27;0.50;;;;;;;;;;10384022;28;20567;-71
2022/07/11 18:29:04;;;;;;;0.93;0.20;;;;;;;;;;10384626;28;20197;-77
2022/07/11 18:34:05;;;;;;;0.90;0.20;;;;;;;;;;10381851;28;20220;-76
2022/07/11 18:44:26;;;;;;;0.63;0.20;;;;;;;;;;10381773;28;20195;-72
2022/07/11 18:49:27;;;;;;;0.20;0.20;;;;;;;;;;10378757;28;20876;-75
2022/07/11 18:54:29;;;;;;;0.30;0.30;;;;;;;;;;10381488;28;20196;-76
2022/07/11 18:59:30;;;;;;;1.02;1.02;;;;;;;;;;10359350;28;20199;-76
2022/07/11 19:04:31;;;;;;;0.30;0.30;;;;;;;;;;10370945;28;20258;-76
2022/07/11 19:09:32;;;;;;;0.80;0.20;;;;;;;;;;10379968;28;20234;-73
2022/07/11 19:14:33;;;;;;;0.35;0.30;;;;;;;;;;10379882;28;20191;-73
2022/07/11 19:19:34;;;;;;;0.30;0.30;;;;;;;;;;10376456;28;20203;-72
2022/07/11 19:24:35;;;;;;;0.20;0.20;;;;;;;;;;10381751;28;20734;-72
2022/07/11 19:29:37;;;;;;;0.68;0.20;;;;;;;;;;10379421;28;20223;-72
2022/07/11 19:34:38;;;;;;;0.30;0.30;;;;;;;;;;10366666;28;21033;-72
2022/07/11 19:39:39;;;;;;;0.75;0.22;;;;;;;;;;10377181;28;20283;-71
2022/07/11 19:44:40;;;;;;;0.57;0.30;;;;;;;;;;10376318;28;20215;-71
2022/07/11 19:49:41;;;;;;;0.38;0.30;;;;;;;;;;10357465;28;20709;-74
2022/07/11 20:00:03;;;;;;;0.25;0.25;;;;;;;;;;10385829;28;20195;-74
2022/07/11 20:05:06;;;;;;;0.40;0.40;;;;;;;;;;10385622;28;20664;-74
2022/07/11 20:10:07;;;;;;;0.20;0.20;;;;;;;;;;10392016;28;20235;-74
2022/07/11 20:15:11;;;;;;;0.30;0.30;;;;;;;;;;10393373;28;20200;-73
2022/07/11 20:20:12;;;;;;;0.52;0.40;;;;;;;;;;10390799;28;20215;-73
2022/07/11 20:25:13;;;;;;;0.47;0.30;;;;;;;;;;10389068;28;20260;-73
2022/07/11 20:30:14;;;;;;;0.30;0.30;;;;;;;;;;10387828;28;20298;-74
2022/07/11 20:35:15;;;;;;;1.25;0.38;;;;;;;;;;10391687;28;20209;-73
2022/07/11 20:40:16;;;;;;;0.30;0.30;;;;;;;;;;10374644;28;20234;-73
2022/07/11 20:45:19;;;;;;;1.25;0.30;;;;;;;;;;10368007;28;20187;-72
2022/07/11 20:50:20;;;;;;;0.30;0.30;;;;;;;;;;10372493;28;20216;-73
2022/07/11 20:55:22;;;;;;;0.38;0.38;;;;;;;;;;10389008;28;20211;-73
2022/07/11 21:00:23;;;;;;;0.40;0.40;;;;;;;;;;10387938;28;20623;-73
2022/07/11 21:05:24;;;;;;;0.90;0.50;;;;;;;;;;10389232;28;20191;-73
2022/07/11 21:10:25;;;;;;;0.60;0.60;;;;;;;;;;10384853;28;20599;-73
2022/07/11 21:15:26;;;;;;;0.50;0.50;;;;;;;;;;10388575;28;20180;-73
2022/07/11 21:20:27;;;;;;;0.30;0.30;;;;;;;;;;10387479;28;20585;-73
2022/07/11 21:25:28;;;;;;;0.40;0.30;;;;;;;;;;10388503;28;20899;-73
2022/07/11 21:30:29;;;;;;;0.30;0.30;;;;;;;;;;10386993;28;20322;-73
2022/07/11 21:35:31;;;;;;;0.90;0.30;;;;;;;;;;10390919;28;20570;-74
2022/07/11 21:40:32;;;;;;;0.30;0.30;;;;;;;;;;10385134;28;20733;-74
2022/07/11 21:45:34;;;;;;;0.45;0.30;;;;;;;;;;10386480;28;20198;-75
2022/07/11 21:50:35;;;;;;;0.35;0.35;;;;;;;;;;10381245;28;20307;-75
2022/07/11 21:55:36;;;;;;;0.40;0.40;;;;;;;;;;10386421;28;20184;-74
2022/07/11 22:00:37;;;;;;;0.30;0.30;;;;;;;;;;10378459;28;20219;-74
2022/07/11 22:05:38;;;;;;;0.80;0.45;;;;;;;;;;10383124;28;20234;-75
2022/07/11 22:10:39;;;;;;;3.15;0.38;;;;;;;;;;10386583;28;20224;-75
2022/07/11 22:15:40;;;;;;;1.17;0.30;;;;;;;;;;10378769;28;20278;-75
2022/07/11 22:20:41;;;;;;;1.10;0.30;;;;;;;;;;10369336;28;20207;-74
2022/07/11 22:25:42;;;;;;;0.40;0.40;;;;;;;;;;10374456;28;20187;-74
2022/07/11 22:30:44;;;;;;;2.15;0.47;;;;;;;;;;10389251;28;20235;-73
2022/07/11 22:35:45;;;;;;;0.30;0.30;;;;;;;;;;10383821;28;20196;-74
2022/07/11 22:40:46;;;;;;;0.30;0.30;;;;;;;;;;10387387;28;20198;-74
2022/07/11 22:45:48;;;;;;;0.40;0.40;;;;;;;;;;10385100;28;20180;-74
2022/07/11 22:50:49;;;;;;;0.80;0.43;;;;;;;;;;10384430;28;20216;-75
2022/07/11 22:55:50;;;;;;;0.40;0.40;;;;;;;;;;10386235;28;20326;-74
2022/07/11 23:00:51;;;;;;;0.35;0.35;;;;;;;;;;10392664;28;20278;-75
2022/07/11 23:05:52;;;;;;;1.05;0.45;;;;;;;;;;10387671;28;20215;-75
2022/07/11 23:10:53;;;;;;;2.15;0.47;;;;;;;;;;10386528;28;20314;-74
2022/07/11 23:15:54;;;;;;;1.70;0.65;;;;;;;;;;10385008;28;20226;-74
2022/07/11 23:20:55;;;;;;;0.70;0.70;;;;;;;;;;10385858;28;20270;-74
2022/07/11 23:25:56;;;;;;;1.40;0.60;;;;;;;;;;10388153;28;20241;-74
2022/07/11 23:30:58;;;;;;;1.92;0.50;;;;;;;;;;10385995;28;20821;-73
2022/07/11 23:35:59;;;;;;;1.50;0.80;;;;;;;;;;10384388;28;20247;-73
2022/07/11 23:41:00;;;;;;;0.65;0.65;;;;;;;;;;10376180;28;20199;-74
2022/07/11 23:46:01;;;;;;;1.13;0.60;;;;;;;;;;10372555;28;20555;-75
2022/07/11 23:51:02;;;;;;;1.25;0.98;;;;;;;;;;10362670;28;20223;-73
2022/07/11 23:56:03;;;;;;;0.68;0.68;;;;;;;;;;10383345;28;20199;-73
